createdAt,value
2018-05-11T00:02:40.226Z,10.50
2018-05-11T00:07:14.197Z,10.40
2018-05-11T00:11:47.394Z,10.40
2018-05-11T00:16:20.582Z,10.50
2018-05-11T00:20:53.759Z,10.60
2018-05-11T00:25:26.957Z,10.60
2018-05-11T00:30:00.227Z,10.70
2018-05-11T00:34:33.392Z,10.70
2018-05-11T00:39:07.430Z,10.50
2018-05-11T00:43:40.578Z,10.50
2018-05-11T00:48:13.759Z,10.50
2018-05-11T00:52:46.963Z,10.50
2018-05-11T00:57:20.146Z,10.50
2018-05-11T01:01:54.110Z,10.30
2018-05-11T01:06:27.270Z,10.30
2018-05-11T01:11:01.247Z,10.30
2018-05-11T01:15:34.419Z,10.30
2018-05-11T01:20:07.663Z,10.40
2018-05-11T01:24:40.853Z,10.30
2018-05-11T01:29:14.050Z,10.30
2018-05-11T01:33:47.268Z,10.20
2018-05-11T01:38:20.447Z,10.30
2018-05-11T01:42:54.414Z,10.30
2018-05-11T01:47:27.615Z,10.30
2018-05-11T01:52:00.812Z,10.40
2018-05-11T01:56:33.987Z,10.40
2018-05-11T02:01:07.944Z,10.50
2018-05-11T02:05:41.138Z,10.40
2018-05-11T02:10:14.416Z,10.40
2018-05-11T02:14:47.586Z,10.40
2018-05-11T02:19:20.794Z,10.30
2018-05-11T02:23:54.026Z,10.30
2018-05-11T02:28:27.198Z,10.30
2018-05-11T02:33:00.403Z,10.40
2018-05-11T02:37:33.602Z,10.40
2018-05-11T02:42:06.794Z,10.40
2018-05-11T02:46:40.016Z,10.40
2018-05-11T02:51:13.672Z,10.30
2018-05-11T02:55:47.003Z,10.20
2018-05-11T03:00:20.269Z,10.00
2018-05-11T03:04:53.450Z,9.90
2018-05-11T03:09:26.748Z,9.80
2018-05-11T03:13:59.858Z,9.80
2018-05-11T03:18:33.076Z,9.70
2018-05-11T03:23:06.254Z,9.60
2018-05-11T03:27:40.186Z,9.70
2018-05-11T03:32:13.386Z,9.70
2018-05-11T03:36:46.587Z,9.80
2018-05-11T03:41:27.048Z,9.80
2018-05-11T03:46:00.241Z,9.70
2018-05-11T03:50:34.215Z,9.60
2018-05-11T03:55:07.422Z,9.60
2018-05-11T03:59:40.623Z,9.50
2018-05-11T04:04:25.652Z,9.50
2018-05-11T04:08:58.856Z,9.50
2018-05-11T04:13:33.219Z,9.50
2018-05-11T04:18:07.183Z,9.40
2018-05-11T04:22:40.388Z,9.30
2018-05-11T04:27:13.658Z,9.40
2018-05-11T04:31:47.695Z,9.40
2018-05-11T04:36:21.644Z,9.50
2018-05-11T04:40:54.834Z,9.50
2018-05-11T04:45:28.020Z,9.60
2018-05-11T04:50:01.966Z,9.80
2018-05-11T04:54:35.153Z,9.70
2018-05-11T04:59:09.111Z,10.00
2018-05-11T05:03:42.283Z,9.90
2018-05-11T05:08:15.481Z,10.20
2018-05-11T05:12:49.457Z,10.40
2018-05-11T05:17:22.657Z,10.30
2018-05-11T05:21:55.868Z,10.40
2018-05-11T05:26:29.063Z,10.50
2018-05-11T05:31:02.283Z,10.50
2018-05-11T05:35:35.451Z,10.50
2018-05-11T05:40:09.426Z,10.60
2018-05-11T05:44:42.677Z,10.50
2018-05-11T05:49:16.602Z,10.60
2018-05-11T05:53:50.582Z,10.70
2018-05-11T05:58:23.788Z,10.70
2018-05-11T06:02:56.986Z,10.80
2018-05-11T06:07:30.199Z,11.00
2018-05-11T06:12:03.383Z,11.30
2018-05-11T06:16:36.626Z,11.60
2018-05-11T06:21:09.867Z,11.90
2018-05-11T06:25:43.847Z,12.50
2018-05-11T06:30:17.023Z,12.50
2018-05-11T06:34:50.238Z,12.90
2018-05-11T06:39:23.415Z,13.30
2018-05-11T06:43:56.646Z,13.60
2018-05-11T06:48:29.846Z,13.90
2018-05-11T06:53:03.015Z,14.20
2018-05-11T06:57:36.229Z,14.40
2018-05-11T07:02:09.399Z,14.60
2018-05-11T07:06:42.603Z,14.80
2018-05-11T07:11:15.809Z,15.00
2018-05-11T07:15:49.021Z,15.30
2018-05-11T07:20:22.192Z,15.80
2018-05-11T07:24:55.394Z,16.10
2018-05-11T07:29:28.566Z,16.30
2018-05-11T07:34:01.775Z,16.60
2018-05-11T07:38:35.750Z,16.70
2018-05-11T07:43:08.951Z,16.70
2018-05-11T07:47:42.165Z,17.00
2018-05-11T07:52:15.371Z,17.60
2018-05-11T07:56:48.574Z,18.20
2018-05-11T08:01:21.783Z,18.70
2018-05-11T08:05:54.980Z,19.10
2018-05-11T08:10:28.210Z,19.10
2018-05-11T08:15:01.418Z,19.50
2018-05-11T08:19:34.620Z,20.60
2018-05-11T08:24:07.829Z,21.70
2018-05-11T08:28:41.011Z,23.20
2018-05-11T08:33:14.247Z,24.30
2018-05-11T08:37:47.451Z,24.90
2018-05-11T08:42:20.642Z,25.70
2018-05-11T08:46:53.839Z,26.50
2018-05-11T08:51:27.047Z,26.30
2018-05-11T08:56:00.246Z,26.50
2018-05-11T09:00:33.447Z,27.20
2018-05-11T09:05:07.302Z,27.60
2018-05-11T09:09:40.516Z,27.70
2018-05-11T09:14:13.707Z,27.10
2018-05-11T09:18:46.917Z,26.20
2018-05-11T09:23:20.114Z,25.10
2018-05-11T09:27:53.312Z,23.30
2018-05-11T09:32:26.516Z,22.60
2018-05-11T09:36:59.743Z,23.10
2018-05-11T09:41:32.924Z,22.50
2018-05-11T09:46:06.898Z,23.50
2018-05-11T09:50:40.089Z,23.40
2018-05-11T09:55:13.287Z,26.10
2018-05-11T09:59:46.484Z,25.20
2018-05-11T10:04:19.675Z,24.90
2018-05-11T10:08:53.625Z,23.10
2018-05-11T10:13:26.836Z,23.00
2018-05-11T10:18:00.092Z,22.60
2018-05-11T10:22:33.305Z,24.30
2018-05-11T10:27:07.267Z,26.40
2018-05-11T10:31:40.494Z,26.30
2018-05-11T10:36:13.688Z,25.40
2018-05-11T10:40:46.897Z,25.60
2018-05-11T10:45:20.098Z,26.70
2018-05-11T10:49:53.288Z,27.10
2018-05-11T10:54:26.446Z,26.40
2018-05-11T10:59:00.464Z,27.60
2018-05-11T11:03:33.667Z,27.60
2018-05-11T11:08:06.911Z,28.10
2018-05-11T11:12:40.866Z,25.90
2018-05-11T11:17:14.046Z,25.80
2018-05-11T11:21:47.999Z,23.50
2018-05-11T11:26:21.171Z,23.40
2018-05-11T11:30:55.136Z,25.30
2018-05-11T11:35:28.324Z,25.30
2018-05-11T11:40:01.549Z,25.30
2018-05-11T11:44:34.748Z,24.30
2018-05-11T11:49:07.943Z,23.20
2018-05-11T11:53:41.175Z,25.30
2018-05-11T11:58:14.350Z,27.80
2018-05-11T12:02:47.599Z,29.20
2018-05-11T12:07:20.786Z,30.20
2018-05-11T12:11:53.986Z,28.80
2018-05-11T12:16:27.202Z,26.80
2018-05-11T12:21:00.394Z,26.00
2018-05-11T12:25:33.588Z,25.10
2018-05-11T12:30:07.019Z,24.40
2018-05-11T12:34:40.219Z,24.00
2018-05-11T12:39:13.407Z,23.40
2018-05-11T12:43:47.365Z,24.10
2018-05-11T12:48:20.580Z,24.10
2018-05-11T12:52:53.812Z,25.40
2018-05-11T12:57:27.014Z,24.80
2018-05-11T13:02:00.206Z,24.00
2018-05-11T13:06:33.403Z,23.20
2018-05-11T13:11:06.607Z,23.10
2018-05-11T13:15:39.929Z,23.50
2018-05-11T13:20:13.131Z,23.80
2018-05-11T13:24:46.519Z,24.00
2018-05-11T13:29:19.711Z,24.30
2018-05-11T13:33:52.890Z,24.50
2018-05-11T13:38:26.112Z,24.10
2018-05-11T13:43:00.098Z,24.50
2018-05-11T13:47:33.271Z,24.40
2018-05-11T13:52:06.478Z,24.50
2018-05-11T13:56:39.668Z,24.50
2018-05-11T14:01:12.875Z,24.40
2018-05-11T14:05:46.061Z,24.50
2018-05-11T14:10:20.035Z,25.00
2018-05-11T14:14:53.342Z,24.90
2018-05-11T14:19:27.024Z,24.40
2018-05-11T14:24:01.004Z,24.00
2018-05-11T14:28:34.575Z,23.90
2018-05-11T14:33:08.229Z,24.20
2018-05-11T14:37:41.451Z,24.00
2018-05-11T14:42:14.661Z,23.60
2018-05-11T14:46:47.838Z,23.30
2018-05-11T14:51:21.023Z,22.90
2018-05-11T14:55:54.211Z,22.70
2018-05-11T15:00:28.190Z,22.40
2018-05-11T15:05:01.445Z,22.40
2018-05-11T15:09:35.382Z,22.30
2018-05-11T15:14:08.611Z,22.20
2018-05-11T15:18:41.792Z,22.60
2018-05-11T15:23:14.984Z,22.90
2018-05-11T15:27:48.946Z,22.70
2018-05-11T15:32:22.143Z,22.70
2018-05-11T15:36:55.355Z,22.80
2018-05-11T15:41:28.571Z,23.00
2018-05-11T15:46:01.759Z,23.10
2018-05-11T15:50:34.975Z,23.00
2018-05-11T15:55:08.190Z,22.90
2018-05-11T15:59:41.378Z,22.90
2018-05-11T16:04:14.562Z,22.80
2018-05-11T16:08:48.516Z,22.80
2018-05-11T16:13:21.718Z,22.80
2018-05-11T16:17:54.932Z,22.80
2018-05-11T16:22:28.104Z,22.90
2018-05-11T16:27:02.084Z,22.30
2018-05-11T16:31:35.238Z,22.20
2018-05-11T16:36:09.919Z,21.50
2018-05-11T16:40:43.130Z,21.40
2018-05-11T16:45:16.331Z,21.40
2018-05-11T16:49:55.962Z,21.50
2018-05-11T16:54:29.158Z,21.50
2018-05-11T16:59:03.127Z,21.80
2018-05-11T17:03:36.321Z,21.70
2018-05-11T17:08:09.555Z,21.80
2018-05-11T17:12:42.900Z,21.80
2018-05-11T17:17:17.073Z,21.60
2018-05-11T17:21:50.350Z,21.40
2018-05-11T17:26:24.403Z,21.10
2018-05-11T17:30:57.594Z,21.10
2018-05-11T17:35:30.790Z,21.00
2018-05-11T17:40:04.741Z,20.60
2018-05-11T17:44:37.913Z,20.60
2018-05-11T17:49:11.883Z,20.40
2018-05-11T17:53:45.088Z,20.30
2018-05-11T17:58:18.283Z,20.20
2018-05-11T18:02:51.451Z,19.90
2018-05-11T18:07:25.408Z,19.70
2018-05-11T18:11:58.633Z,19.60
2018-05-11T18:16:31.807Z,19.50
2018-05-11T18:21:05.009Z,19.40
2018-05-11T18:25:38.242Z,19.20
2018-05-11T18:30:11.438Z,19.10
2018-05-11T18:34:44.630Z,19.00
2018-05-11T18:39:17.844Z,18.80
2018-05-11T18:43:51.019Z,18.60
2018-05-11T18:48:24.992Z,18.00
2018-05-11T18:52:58.333Z,17.90
2018-05-11T18:57:31.443Z,17.80
2018-05-11T19:02:04.642Z,17.60
2018-05-11T19:06:37.867Z,17.40
2018-05-11T19:11:13.155Z,16.90
2018-05-11T19:15:46.346Z,16.80
2018-05-11T19:20:20.348Z,16.50
2018-05-11T19:24:53.571Z,16.40
2018-05-11T19:29:27.529Z,16.20
2018-05-11T19:34:00.726Z,16.10
2018-05-11T19:38:33.929Z,15.90
2018-05-11T19:43:07.104Z,15.70
2018-05-11T19:47:41.071Z,15.40
2018-05-11T19:52:14.270Z,15.30
2018-05-11T19:56:47.458Z,15.30
2018-05-11T20:01:21.424Z,15.00
2018-05-11T20:05:54.686Z,14.90
2018-05-11T20:10:28.679Z,14.70
2018-05-11T20:15:01.864Z,14.60
2018-05-11T20:19:35.065Z,14.50
2018-05-11T20:24:08.267Z,14.40
2018-05-11T20:28:41.479Z,14.30
2018-05-11T20:33:14.774Z,14.10
2018-05-11T20:37:47.995Z,14.00
2018-05-11T20:42:21.163Z,13.80
2018-05-11T20:46:55.286Z,13.50
2018-05-11T20:51:29.694Z,13.40
2018-05-11T20:56:02.898Z,13.40
2018-05-11T21:00:36.099Z,13.40
2018-05-11T21:05:09.276Z,13.30
2018-05-11T21:09:42.486Z,13.30
2018-05-11T21:14:15.684Z,13.20
2018-05-11T21:18:48.897Z,13.10
2018-05-11T21:23:22.074Z,13.00
2018-05-11T21:27:56.030Z,12.80
2018-05-11T21:32:29.229Z,12.70
2018-05-11T21:37:02.431Z,12.70
2018-05-11T21:41:35.594Z,12.60
2018-05-11T21:46:08.782Z,12.60
2018-05-11T21:50:42.087Z,12.50
2018-05-11T21:55:15.967Z,12.20
2018-05-11T21:59:49.170Z,12.10
2018-05-11T22:04:23.161Z,12.00
2018-05-11T22:08:56.380Z,11.90
2018-05-11T22:13:29.727Z,11.90
2018-05-11T22:18:03.554Z,11.70
2018-05-11T22:22:36.730Z,11.60
2018-05-11T22:27:10.025Z,11.60
2018-05-11T22:31:43.245Z,11.50
2018-05-11T22:36:17.213Z,11.40
2018-05-11T22:40:50.385Z,11.30
2018-05-11T22:45:24.363Z,11.30
2018-05-11T22:49:57.585Z,11.20
2018-05-11T22:54:30.771Z,11.20
2018-05-11T22:59:03.958Z,11.20
2018-05-11T23:03:37.200Z,11.10
2018-05-11T23:08:10.343Z,11.10
2018-05-11T23:12:43.551Z,11.10
2018-05-11T23:17:16.720Z,10.90
2018-05-11T23:21:51.413Z,10.70
2018-05-11T23:26:24.630Z,10.70
2018-05-11T23:30:57.895Z,10.80
2018-05-11T23:35:31.859Z,10.70
2018-05-11T23:40:05.062Z,10.70
2018-05-11T23:44:38.333Z,10.60
2018-05-11T23:49:12.295Z,10.50
2018-05-11T23:53:45.515Z,10.40
2018-05-11T23:58:18.694Z,10.40
